sensor_id;sensor_type;location;lat;lon;timestamp;pressure;altitude;pressure_sealevel;temperature
42197;BMP280;27866;48.146;17.098;2022-09-09T00:14:34;99465.94;;;19.96
42197;BMP280;27866;48.146;17.098;2022-09-09T00:31:55;99456.63;;;19.78
42197;BMP280;27866;48.146;17.098;2022-09-09T00:36:19;99456.78;;;19.77
42197;BMP280;27866;48.146;17.098;2022-09-09T00:40:37;99457.28;;;19.73
42197;BMP280;27866;48.146;17.098;2022-09-09T00:45:10;99458.94;;;19.73
42197;BMP280;27866;48.146;17.098;2022-09-09T00:59:20;99469.09;;;19.76
42197;BMP280;27866;48.146;17.098;2022-09-09T01:07:58;99465.50;;;19.77
42197;BMP280;27866;48.146;17.098;2022-09-09T01:12:15;99464.19;;;19.73
42197;BMP280;27866;48.146;17.098;2022-09-09T01:16:30;99472.25;;;19.72
42197;BMP280;27866;48.146;17.098;2022-09-09T01:26:09;99474.53;;;19.75
42197;BMP280;27866;48.146;17.098;2022-09-09T01:30:24;99485.03;;;19.75
42197;BMP280;27866;48.146;17.098;2022-09-09T01:34:39;99479.59;;;19.76
42197;BMP280;27866;48.146;17.098;2022-09-09T01:38:53;99482.59;;;19.73
42197;BMP280;27866;48.146;17.098;2022-09-09T01:43:05;99487.50;;;19.69
42197;BMP280;27866;48.146;17.098;2022-09-09T01:47:18;99484.22;;;19.67
42197;BMP280;27866;48.146;17.098;2022-09-09T01:51:55;99490.47;;;19.66
42197;BMP280;27866;48.146;17.098;2022-09-09T02:00:36;99474.38;;;19.61
42197;BMP280;27866;48.146;17.098;2022-09-09T02:05:37;99482.44;;;19.59
42197;BMP280;27866;48.146;17.098;2022-09-09T02:10:21;99489.50;;;19.59
42197;BMP280;27866;48.146;17.098;2022-09-09T02:14:50;99482.91;;;19.63
42197;BMP280;27866;48.146;17.098;2022-09-09T02:19:29;99482.44;;;19.59
42197;BMP280;27866;48.146;17.098;2022-09-09T02:23:50;99483.59;;;19.57
42197;BMP280;27866;48.146;17.098;2022-09-09T02:28:07;99474.72;;;19.58
42197;BMP280;27866;48.146;17.098;2022-09-09T02:32:23;99484.88;;;19.61
42197;BMP280;27866;48.146;17.098;2022-09-09T02:36:37;99484.88;;;19.61
42197;BMP280;27866;48.146;17.098;2022-09-09T02:40:50;99491.63;;;19.56
42197;BMP280;27866;48.146;17.098;2022-09-09T02:45:03;99486.53;;;19.62
42197;BMP280;27866;48.146;17.098;2022-09-09T02:53:59;99489.97;;;19.70
42197;BMP280;27866;48.146;17.098;2022-09-09T02:58:18;99484.41;;;19.58
42197;BMP280;27866;48.146;17.098;2022-09-09T03:02:38;99490.00;;;19.55
42197;BMP280;27866;48.146;17.098;2022-09-09T03:06:51;99487.19;;;19.56
42197;BMP280;27866;48.146;17.098;2022-09-09T03:11:06;99489.50;;;19.59
42197;BMP280;27866;48.146;17.098;2022-09-09T03:15:21;99487.19;;;19.64
42197;BMP280;27866;48.146;17.098;2022-09-09T03:19:33;99486.53;;;19.62
42197;BMP280;27866;48.146;17.098;2022-09-09T03:23:46;99491.78;;;19.62
42197;BMP280;27866;48.146;17.098;2022-09-09T03:27:58;99492.44;;;19.64
42197;BMP280;27866;48.146;17.098;2022-09-09T03:32:10;99486.19;;;19.65
42197;BMP280;27866;48.146;17.098;2022-09-09T03:36:22;99485.53;;;19.71
42197;BMP280;27866;48.146;17.098;2022-09-09T03:40:33;99482.41;;;19.75
42197;BMP280;27866;48.146;17.098;2022-09-09T03:44:47;99472.56;;;19.77
42197;BMP280;27866;48.146;17.098;2022-09-09T03:49:03;99480.59;;;19.75
42197;BMP280;27866;48.146;17.098;2022-09-09T03:53:19;99479.47;;;19.78
42197;BMP280;27866;48.146;17.098;2022-09-09T03:57:31;99477.78;;;19.85
42197;BMP280;27866;48.146;17.098;2022-09-09T04:01:46;99478.91;;;19.90
42197;BMP280;27866;48.146;17.098;2022-09-09T04:06:02;99460.34;;;19.91
42197;BMP280;27866;48.146;17.098;2022-09-09T04:10:16;99484.84;;;19.92
42197;BMP280;27866;48.146;17.098;2022-09-09T04:14:28;99481.56;;;19.90
42197;BMP280;27866;48.146;17.098;2022-09-09T04:18:40;99472.19;;;19.87
42197;BMP280;27866;48.146;17.098;2022-09-09T04:22:52;99470.72;;;19.93
42197;BMP280;27866;48.146;17.098;2022-09-09T04:27:04;99491.56;;;20.02
42197;BMP280;27866;48.146;17.098;2022-09-09T04:31:22;99483.28;;;20.13
42197;BMP280;27866;48.146;17.098;2022-09-09T04:35:37;99490.34;;;20.20
42197;BMP280;27866;48.146;17.098;2022-09-09T04:39:49;99499.22;;;20.27
42197;BMP280;27866;48.146;17.098;2022-09-09T04:44:01;99508.44;;;20.23
42197;BMP280;27866;48.146;17.098;2022-09-09T04:48:14;99511.72;;;20.09
42197;BMP280;27866;48.146;17.098;2022-09-09T04:52:26;99511.28;;;19.98
42197;BMP280;27866;48.146;17.098;2022-09-09T04:56:37;99509.13;;;19.94
42197;BMP280;27866;48.146;17.098;2022-09-09T05:00:48;99511.13;;;19.92
42197;BMP280;27866;48.146;17.098;2022-09-09T05:05:00;99513.25;;;19.96
42197;BMP280;27866;48.146;17.098;2022-09-09T05:09:12;99513.38;;;20.02
42197;BMP280;27866;48.146;17.098;2022-09-09T05:13:24;99520.94;;;20.13
42197;BMP280;27866;48.146;17.098;2022-09-09T05:17:36;99524.22;;;20.23
42197;BMP280;27866;48.146;17.098;2022-09-09T05:21:48;99516.13;;;20.32
42197;BMP280;27866;48.146;17.098;2022-09-09T05:26:06;99520.16;;;20.50
42197;BMP280;27866;48.146;17.098;2022-09-09T05:30:19;99525.72;;;20.62
42197;BMP280;27866;48.146;17.098;2022-09-09T05:34:31;99524.66;;;20.71
42197;BMP280;27866;48.146;17.098;2022-09-09T05:38:43;99536.66;;;20.74
42197;BMP280;27866;48.146;17.098;2022-09-09T05:42:55;99530.91;;;20.78
42197;BMP280;27866;48.146;17.098;2022-09-09T05:47:10;99530.94;;;21.00
42197;BMP280;27866;48.146;17.098;2022-09-09T05:51:26;99526.81;;;21.27
42197;BMP280;27866;48.146;17.098;2022-09-09T05:55:41;99530.59;;;21.46
42197;BMP280;27866;48.146;17.098;2022-09-09T05:59:53;99523.00;;;21.73
42197;BMP280;27866;48.146;17.098;2022-09-09T06:04:04;99518.16;;;24.04
42197;BMP280;27866;48.146;17.098;2022-09-09T06:08:17;99513.97;;;27.37
42197;BMP280;27866;48.146;17.098;2022-09-09T06:12:29;99502.28;;;29.26
42197;BMP280;27866;48.146;17.098;2022-09-09T06:16:40;99524.13;;;31.19
42197;BMP280;27866;48.146;17.098;2022-09-09T06:21:08;99519.13;;;32.98
42197;BMP280;27866;48.146;17.098;2022-09-09T06:25:20;99510.59;;;29.47
42197;BMP280;27866;48.146;17.098;2022-09-09T06:29:32;99499.69;;;25.59
42197;BMP280;27866;48.146;17.098;2022-09-09T06:33:44;99502.56;;;24.15
42197;BMP280;27866;48.146;17.098;2022-09-09T06:37:57;99490.41;;;23.67
42197;BMP280;27866;48.146;17.098;2022-09-09T06:42:10;99499.53;;;24.90
42197;BMP280;27866;48.146;17.098;2022-09-09T06:46:40;99500.03;;;25.18
42197;BMP280;27866;48.146;17.098;2022-09-09T06:51:11;99491.50;;;26.97
42197;BMP280;27866;48.146;17.098;2022-09-09T06:55:24;99492.09;;;25.37
42197;BMP280;27866;48.146;17.098;2022-09-09T06:59:37;99497.50;;;24.92
42197;BMP280;27866;48.146;17.098;2022-09-09T07:03:51;99516.19;;;30.74
42197;BMP280;27866;48.146;17.098;2022-09-09T07:08:05;99512.00;;;34.86
42197;BMP280;27866;48.146;17.098;2022-09-09T07:12:17;99512.59;;;38.23
42197;BMP280;27866;48.146;17.098;2022-09-09T07:16:36;99491.31;;;35.60
42197;BMP280;27866;48.146;17.098;2022-09-09T07:20:55;99503.97;;;30.11
42197;BMP280;27866;48.146;17.098;2022-09-09T07:25:09;99480.34;;;27.49
42197;BMP280;27866;48.146;17.098;2022-09-09T07:29:21;99498.03;;;27.37
42197;BMP280;27866;48.146;17.098;2022-09-09T07:33:35;99500.91;;;26.44
42197;BMP280;27866;48.146;17.098;2022-09-09T07:37:47;99494.78;;;25.62
42197;BMP280;27866;48.146;17.098;2022-09-09T07:41:59;99492.69;;;25.20
42197;BMP280;27866;48.146;17.098;2022-09-09T07:46:16;99494.66;;;24.99
42197;BMP280;27866;48.146;17.098;2022-09-09T07:50:29;99490.66;;;25.16
42197;BMP280;27866;48.146;17.098;2022-09-09T07:54:41;99491.47;;;25.16
42197;BMP280;27866;48.146;17.098;2022-09-09T07:58:56;99495.59;;;25.31
42197;BMP280;27866;48.146;17.098;2022-09-09T08:03:10;99498.91;;;25.84
42197;BMP280;27866;48.146;17.098;2022-09-09T08:07:22;99487.25;;;25.53
42197;BMP280;27866;48.146;17.098;2022-09-09T08:11:39;99486.81;;;25.43
42197;BMP280;27866;48.146;17.098;2022-09-09T08:15:52;99487.22;;;25.47
42197;BMP280;27866;48.146;17.098;2022-09-09T08:20:09;99488.66;;;25.62
42197;BMP280;27866;48.146;17.098;2022-09-09T08:24:23;99483.38;;;25.81
42197;BMP280;27866;48.146;17.098;2022-09-09T08:28:36;99480.72;;;26.18
42197;BMP280;27866;48.146;17.098;2022-09-09T08:32:49;99493.53;;;27.02
42197;BMP280;27866;48.146;17.098;2022-09-09T08:37:03;99493.06;;;27.94
42197;BMP280;27866;48.146;17.098;2022-09-09T08:41:31;99496.69;;;29.28
42197;BMP280;27866;48.146;17.098;2022-09-09T08:50:15;99487.66;;;30.80
42197;BMP280;27866;48.146;17.098;2022-09-09T08:54:34;99477.59;;;30.59
42197;BMP280;27866;48.146;17.098;2022-09-09T08:58:53;99491.19;;;30.69
42197;BMP280;27866;48.146;17.098;2022-09-09T09:08:12;99480.75;;;31.33
42197;BMP280;27866;48.146;17.098;2022-09-09T09:12:32;99482.31;;;30.80
42197;BMP280;27866;48.146;17.098;2022-09-09T09:17:07;99491.28;;;33.50
42197;BMP280;27866;48.146;17.098;2022-09-09T09:25:59;99489.34;;;33.20
42197;BMP280;27866;48.146;17.098;2022-09-09T09:30:21;99484.75;;;37.85
42197;BMP280;27866;48.146;17.098;2022-09-09T09:34:33;99489.34;;;39.18
42197;BMP280;27866;48.146;17.098;2022-09-09T09:39:02;99469.69;;;39.08
42197;BMP280;27866;48.146;17.098;2022-09-09T09:43:34;99446.78;;;34.19
42197;BMP280;27866;48.146;17.098;2022-09-09T09:48:13;99466.69;;;33.11
42197;BMP280;27866;48.146;17.098;2022-09-09T09:52:30;99451.41;;;36.10
42197;BMP280;27866;48.146;17.098;2022-09-09T09:56:45;99440.34;;;37.12
42197;BMP280;27866;48.146;17.098;2022-09-09T10:00:57;99434.66;;;35.21
42197;BMP280;27866;48.146;17.098;2022-09-09T10:05:23;99426.88;;;34.65
42197;BMP280;27866;48.146;17.098;2022-09-09T10:09:36;99420.50;;;33.60
42197;BMP280;27866;48.146;17.098;2022-09-09T10:18:57;99418.06;;;34.30
42197;BMP280;27866;48.146;17.098;2022-09-09T10:33:07;99409.78;;;38.18
42197;BMP280;27866;48.146;17.098;2022-09-09T10:42:12;99408.97;;;36.54
42197;BMP280;27866;48.146;17.098;2022-09-09T10:46:50;99432.34;;;36.93
42197;BMP280;27866;48.146;17.098;2022-09-09T10:51:46;99424.09;;;37.22
42197;BMP280;27866;48.146;17.098;2022-09-09T10:56:11;99415.31;;;36.02
42197;BMP280;27866;48.146;17.098;2022-09-09T11:00:44;99420.59;;;35.00
42197;BMP280;27866;48.146;17.098;2022-09-09T11:09:26;99425.53;;;35.71
42197;BMP280;27866;48.146;17.098;2022-09-09T11:13:47;99424.53;;;42.05
42197;BMP280;27866;48.146;17.098;2022-09-09T11:18:04;99424.53;;;46.25
42197;BMP280;27866;48.146;17.098;2022-09-09T11:23:03;99429.34;;;46.08
42197;BMP280;27866;48.146;17.098;2022-09-09T11:32:39;99390.88;;;43.23
42197;BMP280;27866;48.146;17.098;2022-09-09T11:41:07;99395.72;;;40.23
42197;BMP280;27866;48.146;17.098;2022-09-09T11:45:26;99395.50;;;39.58
42197;BMP280;27866;48.146;17.098;2022-09-09T11:49:41;99400.63;;;39.41
42197;BMP280;27866;48.146;17.098;2022-09-09T11:58:38;99393.19;;;41.52
42197;BMP280;27866;48.146;17.098;2022-09-09T12:02:51;99386.03;;;41.98
42197;BMP280;27866;48.146;17.098;2022-09-09T12:11:26;99392.63;;;40.29
42197;BMP280;27866;48.146;17.098;2022-09-09T12:15:52;99379.56;;;44.06
42197;BMP280;27866;48.146;17.098;2022-09-09T12:20:23;99368.38;;;43.67
42197;BMP280;27866;48.146;17.098;2022-09-09T12:25:02;99369.19;;;44.36
42197;BMP280;27866;48.146;17.098;2022-09-09T12:38:34;99348.53;;;45.82
42197;BMP280;27866;48.146;17.098;2022-09-09T12:42:47;99339.88;;;41.51
42197;BMP280;27866;48.146;17.098;2022-09-09T12:47:00;99339.34;;;39.27
42197;BMP280;27866;48.146;17.098;2022-09-09T12:51:25;99325.66;;;38.83
42197;BMP280;27866;48.146;17.098;2022-09-09T12:55:38;99325.19;;;39.48
42197;BMP280;27866;48.146;17.098;2022-09-09T12:59:50;99320.31;;;41.41
42197;BMP280;27866;48.146;17.098;2022-09-09T13:04:02;99313.47;;;43.93
42197;BMP280;27866;48.146;17.098;2022-09-09T13:08:16;99298.81;;;44.89
42197;BMP280;27866;48.146;17.098;2022-09-09T13:12:37;99295.78;;;41.33
42197;BMP280;27866;48.146;17.098;2022-09-09T13:16:58;99297.72;;;39.36
42197;BMP280;27866;48.146;17.098;2022-09-09T13:21:10;99286.22;;;39.57
42197;BMP280;27866;48.146;17.098;2022-09-09T13:25:25;99265.97;;;37.61
42197;BMP280;27866;48.146;17.098;2022-09-09T13:29:37;99272.06;;;36.74
42197;BMP280;27866;48.146;17.098;2022-09-09T13:33:50;99273.56;;;39.04
42197;BMP280;27866;48.146;17.098;2022-09-09T13:38:08;99276.84;;;37.52
42197;BMP280;27866;48.146;17.098;2022-09-09T13:42:31;99277.78;;;36.02
42197;BMP280;27866;48.146;17.098;2022-09-09T13:46:43;99277.91;;;36.44
42197;BMP280;27866;48.146;17.098;2022-09-09T13:51:02;99271.41;;;36.45
42197;BMP280;27866;48.146;17.098;2022-09-09T13:55:16;99265.91;;;34.43
42197;BMP280;27866;48.146;17.098;2022-09-09T13:59:27;99265.22;;;33.27
42197;BMP280;27866;48.146;17.098;2022-09-09T14:03:39;99260.13;;;32.95
42197;BMP280;27866;48.146;17.098;2022-09-09T14:07:50;99256.41;;;32.71
42197;BMP280;27866;48.146;17.098;2022-09-09T14:12:02;99258.72;;;32.62
42197;BMP280;27866;48.146;17.098;2022-09-09T14:16:13;99250.84;;;32.51
42197;BMP280;27866;48.146;17.098;2022-09-09T14:20:25;99242.72;;;32.46
42197;BMP280;27866;48.146;17.098;2022-09-09T14:24:36;99245.50;;;32.10
42197;BMP280;27866;48.146;17.098;2022-09-09T14:28:48;99242.53;;;31.33
42197;BMP280;27866;48.146;17.098;2022-09-09T14:33:00;99240.94;;;31.00
42197;BMP280;27866;48.146;17.098;2022-09-09T14:37:11;99248.28;;;30.93
42197;BMP280;27866;48.146;17.098;2022-09-09T14:41:23;99257.03;;;30.73
42197;BMP280;27866;48.146;17.098;2022-09-09T14:45:35;99248.88;;;30.52
42197;BMP280;27866;48.146;17.098;2022-09-09T14:49:48;99251.50;;;30.36
42197;BMP280;27866;48.146;17.098;2022-09-09T14:54:00;99261.59;;;30.07
42197;BMP280;27866;48.146;17.098;2022-09-09T14:58:13;99260.53;;;29.70
42197;BMP280;27866;48.146;17.098;2022-09-09T15:02:24;99259.84;;;29.41
42197;BMP280;27866;48.146;17.098;2022-09-09T15:06:36;99264.94;;;29.20
42197;BMP280;27866;48.146;17.098;2022-09-09T15:10:50;99250.75;;;28.97
42197;BMP280;27866;48.146;17.098;2022-09-09T15:15:03;99253.53;;;29.02
42197;BMP280;27866;48.146;17.098;2022-09-09T15:19:14;99244.81;;;28.84
42197;BMP280;27866;48.146;17.098;2022-09-09T15:23:26;99249.06;;;28.63
42197;BMP280;27866;48.146;17.098;2022-09-09T15:27:37;99240.94;;;28.58
42197;BMP280;27866;48.146;17.098;2022-09-09T15:31:50;99243.03;;;28.56
42197;BMP280;27866;48.146;17.098;2022-09-09T15:36:22;99220.84;;;28.45
42197;BMP280;27866;48.146;17.098;2022-09-09T15:40:34;99221.50;;;28.40
42197;BMP280;27866;48.146;17.098;2022-09-09T15:44:45;99221.47;;;28.29
42197;BMP280;27866;48.146;17.098;2022-09-09T15:49:19;99217.59;;;28.14
42197;BMP280;27866;48.146;17.098;2022-09-09T15:53:31;99210.28;;;28.10
42197;BMP280;27866;48.146;17.098;2022-09-09T15:57:46;99203.44;;;28.03
42197;BMP280;27866;48.146;17.098;2022-09-09T16:01:57;99196.97;;;27.92
42197;BMP280;27866;48.146;17.098;2022-09-09T16:06:11;99200.94;;;27.73
42197;BMP280;27866;48.146;17.098;2022-09-09T16:10:22;99215.22;;;27.60
42197;BMP280;27866;48.146;17.098;2022-09-09T16:14:34;99218.03;;;27.48
42197;BMP280;27866;48.146;17.098;2022-09-09T16:18:50;99239.34;;;27.42
42197;BMP280;27866;48.146;17.098;2022-09-09T16:23:03;99241.56;;;27.27
42197;BMP280;27866;48.146;17.098;2022-09-09T16:27:14;99248.72;;;27.27
42197;BMP280;27866;48.146;17.098;2022-09-09T16:31:27;99254.00;;;27.09
42197;BMP280;27866;48.146;17.098;2022-09-09T16:35:38;99258.56;;;27.02
42197;BMP280;27866;48.146;17.098;2022-09-09T16:39:51;99258.69;;;26.90
42197;BMP280;27866;48.146;17.098;2022-09-09T16:44:06;99260.16;;;26.80
42197;BMP280;27866;48.146;17.098;2022-09-09T16:48:17;99256.31;;;26.76
42197;BMP280;27866;48.146;17.098;2022-09-09T16:52:29;99263.34;;;26.64
42197;BMP280;27866;48.146;17.098;2022-09-09T16:56:43;99263.84;;;26.49
42197;BMP280;27866;48.146;17.098;2022-09-09T17:01:01;99258.22;;;26.39
42197;BMP280;27866;48.146;17.098;2022-09-09T17:05:14;99253.78;;;26.21
42197;BMP280;27866;48.146;17.098;2022-09-09T17:09:26;99251.84;;;26.04
42197;BMP280;27866;48.146;17.098;2022-09-09T17:13:42;99267.81;;;25.98
42197;BMP280;27866;48.146;17.098;2022-09-09T17:17:53;99274.00;;;25.85
42197;BMP280;27866;48.146;17.098;2022-09-09T17:22:06;99278.50;;;25.79
42197;BMP280;27866;48.146;17.098;2022-09-09T17:26:21;99279.31;;;25.79
42197;BMP280;27866;48.146;17.098;2022-09-09T17:30:36;99292.81;;;25.65
42197;BMP280;27866;48.146;17.098;2022-09-09T17:34:47;99289.53;;;25.70
42197;BMP280;27866;48.146;17.098;2022-09-09T17:39:01;99300.38;;;25.68
42197;BMP280;27866;48.146;17.098;2022-09-09T17:43:12;99308.13;;;25.63
42197;BMP280;27866;48.146;17.098;2022-09-09T17:47:24;99309.13;;;25.62
42197;BMP280;27866;48.146;17.098;2022-09-09T17:51:36;99307.91;;;25.65
42197;BMP280;27866;48.146;17.098;2022-09-09T17:55:47;99312.41;;;25.71
42197;BMP280;27866;48.146;17.098;2022-09-09T18:00:00;99309.16;;;25.69
42197;BMP280;27866;48.146;17.098;2022-09-09T18:04:14;99317.09;;;25.69
42197;BMP280;27866;48.146;17.098;2022-09-09T18:08:25;99316.91;;;25.70
42197;BMP280;27866;48.146;17.098;2022-09-09T18:12:37;99315.66;;;25.60
42197;BMP280;27866;48.146;17.098;2022-09-09T18:16:49;99321.81;;;25.54
42197;BMP280;27866;48.146;17.098;2022-09-09T18:21:06;99332.00;;;25.51
42197;BMP280;27866;48.146;17.098;2022-09-09T18:25:17;99331.00;;;25.33
42197;BMP280;27866;48.146;17.098;2022-09-09T18:29:29;99343.84;;;25.17
42197;BMP280;27866;48.146;17.098;2022-09-09T18:33:45;99351.16;;;25.02
42197;BMP280;27866;48.146;17.098;2022-09-09T18:37:57;99357.69;;;24.94
42197;BMP280;27866;48.146;17.098;2022-09-09T18:42:08;99371.75;;;24.88
42197;BMP280;27866;48.146;17.098;2022-09-09T18:46:21;99378.44;;;24.78
42197;BMP280;27866;48.146;17.098;2022-09-09T18:50:33;99385.72;;;24.57
42197;BMP280;27866;48.146;17.098;2022-09-09T18:54:44;99386.69;;;24.43
42197;BMP280;27866;48.146;17.098;2022-09-09T18:59:00;99380.72;;;24.29
42197;BMP280;27866;48.146;17.098;2022-09-09T19:03:12;99385.38;;;24.27
42197;BMP280;27866;48.146;17.098;2022-09-09T19:07:23;99385.09;;;24.10
42197;BMP280;27866;48.146;17.098;2022-09-09T19:11:34;99375.03;;;23.93
42197;BMP280;27866;48.146;17.098;2022-09-09T19:15:46;99363.28;;;23.75
42197;BMP280;27866;48.146;17.098;2022-09-09T19:19:57;99366.91;;;23.61
42197;BMP280;27866;48.146;17.098;2022-09-09T19:24:21;99356.75;;;23.38
42197;BMP280;27866;48.146;17.098;2022-09-09T19:28:34;99356.94;;;23.10
42197;BMP280;27866;48.146;17.098;2022-09-09T19:32:46;99357.13;;;22.88
42197;BMP280;27866;48.146;17.098;2022-09-09T19:36:58;99358.97;;;22.88
42197;BMP280;27866;48.146;17.098;2022-09-09T19:41:17;99362.84;;;22.71
42197;BMP280;27866;48.146;17.098;2022-09-09T19:45:29;99359.06;;;22.60
42197;BMP280;27866;48.146;17.098;2022-09-09T19:49:41;99353.78;;;22.60
42197;BMP280;27866;48.146;17.098;2022-09-09T19:53:57;99345.19;;;22.51
42197;BMP280;27866;48.146;17.098;2022-09-09T19:58:09;99355.03;;;22.43
42197;BMP280;27866;48.146;17.098;2022-09-09T20:02:20;99357.56;;;22.37
42197;BMP280;27866;48.146;17.098;2022-09-09T20:06:39;99367.16;;;22.24
42197;BMP280;27866;48.146;17.098;2022-09-09T20:10:52;99359.97;;;22.18
42197;BMP280;27866;48.146;17.098;2022-09-09T20:15:04;99377.00;;;22.16
42197;BMP280;27866;48.146;17.098;2022-09-09T20:19:16;99388.97;;;22.18
42197;BMP280;27866;48.146;17.098;2022-09-09T20:23:28;99374.38;;;22.16
42197;BMP280;27866;48.146;17.098;2022-09-09T20:27:40;99370.63;;;22.10
42197;BMP280;27866;48.146;17.098;2022-09-09T20:31:52;99361.81;;;22.04
42197;BMP280;27866;48.146;17.098;2022-09-09T20:36:26;99364.13;;;21.92
42197;BMP280;27866;48.146;17.098;2022-09-09T20:40:38;99368.66;;;21.84
42197;BMP280;27866;48.146;17.098;2022-09-09T20:44:51;99387.19;;;21.77
42197;BMP280;27866;48.146;17.098;2022-09-09T20:49:05;99379.66;;;21.74
42197;BMP280;27866;48.146;17.098;2022-09-09T20:53:16;99375.19;;;21.88
42197;BMP280;27866;48.146;17.098;2022-09-09T20:57:28;99384.84;;;21.81
42197;BMP280;27866;48.146;17.098;2022-09-09T21:01:40;99383.38;;;21.65
42197;BMP280;27866;48.146;17.098;2022-09-09T21:05:52;99397.28;;;21.59
42197;BMP280;27866;48.146;17.098;2022-09-09T21:10:04;99393.69;;;21.52
42197;BMP280;27866;48.146;17.098;2022-09-09T21:14:15;99401.97;;;21.49
42197;BMP280;27866;48.146;17.098;2022-09-09T21:18:27;99402.06;;;21.42
42197;BMP280;27866;48.146;17.098;2022-09-09T21:22:40;99422.75;;;21.45
42197;BMP280;27866;48.146;17.098;2022-09-09T21:26:52;99431.69;;;21.44
42197;BMP280;27866;48.146;17.098;2022-09-09T21:31:04;99427.06;;;21.46
42197;BMP280;27866;48.146;17.098;2022-09-09T21:35:16;99415.81;;;21.51
42197;BMP280;27866;48.146;17.098;2022-09-09T21:39:29;99423.31;;;21.54
42197;BMP280;27866;48.146;17.098;2022-09-09T21:43:41;99422.41;;;21.48
42197;BMP280;27866;48.146;17.098;2022-09-09T21:47:53;99431.22;;;21.40
42197;BMP280;27866;48.146;17.098;2022-09-09T21:52:05;99419.00;;;21.25
42197;BMP280;27866;48.146;17.098;2022-09-09T21:56:17;99433.81;;;21.26
42197;BMP280;27866;48.146;17.098;2022-09-09T22:00:29;99425.38;;;21.31
42197;BMP280;27866;48.146;17.098;2022-09-09T22:04:42;99414.03;;;21.30
42197;BMP280;27866;48.146;17.098;2022-09-09T22:08:54;99413.72;;;21.25
42197;BMP280;27866;48.146;17.098;2022-09-09T22:13:07;99407.28;;;21.14
42197;BMP280;27866;48.146;17.098;2022-09-09T22:17:19;99412.75;;;20.83
42197;BMP280;27866;48.146;17.098;2022-09-09T22:21:31;99421.75;;;20.66
42197;BMP280;27866;48.146;17.098;2022-09-09T22:25:43;99422.94;;;20.56
42197;BMP280;27866;48.146;17.098;2022-09-09T22:29:54;99417.09;;;20.46
42197;BMP280;27866;48.146;17.098;2022-09-09T22:34:06;99427.09;;;20.51
42197;BMP280;27866;48.146;17.098;2022-09-09T22:38:17;99417.03;;;20.54
42197;BMP280;27866;48.146;17.098;2022-09-09T22:42:29;99417.69;;;20.56
42197;BMP280;27866;48.146;17.098;2022-09-09T22:46:40;99419.38;;;20.49
42197;BMP280;27866;48.146;17.098;2022-09-09T22:50:52;99412.84;;;20.46
42197;BMP280;27866;48.146;17.098;2022-09-09T22:55:04;99411.19;;;20.45
42197;BMP280;27866;48.146;17.098;2022-09-09T22:59:17;99416.81;;;20.42
42197;BMP280;27866;48.146;17.098;2022-09-09T23:03:30;99423.22;;;20.39
42197;BMP280;27866;48.146;17.098;2022-09-09T23:07:43;99429.38;;;20.24
42197;BMP280;27866;48.146;17.098;2022-09-09T23:11:54;99422.66;;;20.14
42197;BMP280;27866;48.146;17.098;2022-09-09T23:16:14;99433.50;;;20.11
42197;BMP280;27866;48.146;17.098;2022-09-09T23:20:26;99426.97;;;20.07
42197;BMP280;27866;48.146;17.098;2022-09-09T23:24:38;99420.00;;;20.14
42197;BMP280;27866;48.146;17.098;2022-09-09T23:28:52;99414.94;;;20.13
42197;BMP280;27866;48.146;17.098;2022-09-09T23:33:08;99400.56;;;19.93
42197;BMP280;27866;48.146;17.098;2022-09-09T23:37:19;99407.34;;;19.80
42197;BMP280;27866;48.146;17.098;2022-09-09T23:41:32;99418.88;;;19.72
42197;BMP280;27866;48.146;17.098;2022-09-09T23:45:45;99403.78;;;19.66
42197;BMP280;27866;48.146;17.098;2022-09-09T23:49:57;99409.03;;;19.66
42197;BMP280;27866;48.146;17.098;2022-09-09T23:54:09;99411.97;;;19.71
42197;BMP280;27866;48.146;17.098;2022-09-09T23:58:21;99405.53;;;19.81
